Lambric, Kentucky
Current Conditions -  °F | °C
As of 6:53 AM on Wednesday 26 Nov 2014 (Local Time) from KJKL Reporting Station
Clear Clear  
Wind Chill: 34°   Ceiling: Unl
Heat Index: 34°   Visibility: 10mi
Dew Point: 27°   Wind: 0mph
Humidity: 75%   Direction: NA
Pressure: 30.01"   Gusts: NA
Location:  37.532°N, 83.3068°W
Report Text: KJKL 261153Z AUTO 00000KT 10SM CLR 01/M03 A3001 RMK AO2 SLP165 T00111028 10039 20011 58003
Loading
Personal Weather Stations






























Interactive Weather Map New forecast layout! Learn more

10-Day Weather Forecast

Advertisements
Track Severe Weather on mobile